Terminal Aerodrome Forecast
Issued by NWS

Home | Current Version | Previous Version | Text Only | Print | Product List | Glossary On
Versions: 1 2 3 4 5 6 7 8 9 10 11 12 13 14 15 16 17 18 19
000
FTUS41 KPBZ 221121
TAFBVI
TAF
KBVI 221121Z 2212/2312 10003KT 5SM BR BKN100
      TEMPO 2212/2213 1SM BR
     FM221400 08008KT P6SM BKN100
     FM230300 08010KT P6SM -SHRA OVC025
     FM230500 08012G20KT 4SM -SHRA BR OVC015
      AMD NOT SKED=

USA.gov is the U.S. government's official web portal to all federal, state and local government web resources and services.